sensor_id;sensor_type;location;lat;lon;timestamp;P1;durP1;ratioP1;P2;durP2;ratioP2
27925;SDS011;15267;47.838;12.128;2023-05-21T00:01:12;17.40;;;9.95;;
27925;SDS011;15267;47.838;12.128;2023-05-21T00:03:41;11.15;;;9.60;;
27925;SDS011;15267;47.838;12.128;2023-05-21T00:06:09;10.77;;;9.48;;
27925;SDS011;15267;47.838;12.128;2023-05-21T00:08:37;12.32;;;9.85;;
27925;SDS011;15267;47.838;12.128;2023-05-21T00:11:03;15.07;;;10.13;;
27925;SDS011;15267;47.838;12.128;2023-05-21T00:13:29;12.65;;;9.40;;
27925;SDS011;15267;47.838;12.128;2023-05-21T00:15:55;11.40;;;9.35;;
27925;SDS011;15267;47.838;12.128;2023-05-21T00:18:21;12.75;;;9.65;;
27925;SDS011;15267;47.838;12.128;2023-05-21T00:20:49;14.80;;;10.05;;
27925;SDS011;15267;47.838;12.128;2023-05-21T00:23:15;10.77;;;9.65;;
27925;SDS011;15267;47.838;12.128;2023-05-21T00:25:42;12.98;;;9.35;;
27925;SDS011;15267;47.838;12.128;2023-05-21T00:28:08;12.80;;;9.18;;
27925;SDS011;15267;47.838;12.128;2023-05-21T00:30:34;14.25;;;9.80;;
27925;SDS011;15267;47.838;12.128;2023-05-21T00:33:00;12.63;;;10.52;;
27925;SDS011;15267;47.838;12.128;2023-05-21T00:35:26;11.98;;;9.75;;
27925;SDS011;15267;47.838;12.128;2023-05-21T00:37:53;15.60;;;9.45;;
27925;SDS011;15267;47.838;12.128;2023-05-21T00:40:19;10.75;;;9.30;;
27925;SDS011;15267;47.838;12.128;2023-05-21T00:42:45;14.02;;;9.70;;
27925;SDS011;15267;47.838;12.128;2023-05-21T00:45:12;11.05;;;9.43;;
27925;SDS011;15267;47.838;12.128;2023-05-21T00:47:41;11.63;;;9.45;;
27925;SDS011;15267;47.838;12.128;2023-05-21T00:50:08;11.75;;;9.40;;
27925;SDS011;15267;47.838;12.128;2023-05-21T00:52:34;11.65;;;9.68;;
27925;SDS011;15267;47.838;12.128;2023-05-21T00:55:05;10.82;;;9.68;;
27925;SDS011;15267;47.838;12.128;2023-05-21T00:57:31;11.88;;;9.80;;
27925;SDS011;15267;47.838;12.128;2023-05-21T00:59:58;11.75;;;9.48;;
27925;SDS011;15267;47.838;12.128;2023-05-21T01:02:24;12.20;;;9.50;;
27925;SDS011;15267;47.838;12.128;2023-05-21T01:04:53;11.57;;;9.52;;
27925;SDS011;15267;47.838;12.128;2023-05-21T01:07:20;15.55;;;9.70;;
27925;SDS011;15267;47.838;12.128;2023-05-21T01:09:46;15.50;;;9.75;;
27925;SDS011;15267;47.838;12.128;2023-05-21T01:12:12;11.55;;;9.40;;
27925;SDS011;15267;47.838;12.128;2023-05-21T01:14:38;11.38;;;9.20;;
27925;SDS011;15267;47.838;12.128;2023-05-21T01:17:04;12.88;;;9.10;;
27925;SDS011;15267;47.838;12.128;2023-05-21T01:19:34;13.48;;;9.95;;
27925;SDS011;15267;47.838;12.128;2023-05-21T01:22:04;15.07;;;9.57;;
27925;SDS011;15267;47.838;12.128;2023-05-21T01:24:31;14.63;;;8.80;;
27925;SDS011;15267;47.838;12.128;2023-05-21T01:26:57;10.48;;;8.68;;
27925;SDS011;15267;47.838;12.128;2023-05-21T01:29:24;11.73;;;9.25;;
27925;SDS011;15267;47.838;12.128;2023-05-21T01:34:20;12.23;;;9.32;;
27925;SDS011;15267;47.838;12.128;2023-05-21T01:36:50;12.30;;;9.02;;
27925;SDS011;15267;47.838;12.128;2023-05-21T01:39:20;12.80;;;9.00;;
27925;SDS011;15267;47.838;12.128;2023-05-21T01:41:48;10.43;;;9.32;;
27925;SDS011;15267;47.838;12.128;2023-05-21T01:44:14;10.75;;;8.85;;
27925;SDS011;15267;47.838;12.128;2023-05-21T01:46:41;12.48;;;9.93;;
27925;SDS011;15267;47.838;12.128;2023-05-21T01:49:07;10.55;;;8.70;;
27925;SDS011;15267;47.838;12.128;2023-05-21T01:51:34;12.82;;;9.82;;
27925;SDS011;15267;47.838;12.128;2023-05-21T01:54:00;10.45;;;9.07;;
27925;SDS011;15267;47.838;12.128;2023-05-21T01:56:26;10.88;;;8.68;;
27925;SDS011;15267;47.838;12.128;2023-05-21T01:58:53;12.10;;;10.00;;
27925;SDS011;15267;47.838;12.128;2023-05-21T02:01:20;12.50;;;9.63;;
27925;SDS011;15267;47.838;12.128;2023-05-21T02:03:46;9.82;;;8.77;;
27925;SDS011;15267;47.838;12.128;2023-05-21T02:06:12;11.13;;;9.73;;
27925;SDS011;15267;47.838;12.128;2023-05-21T02:08:38;16.20;;;9.75;;
27925;SDS011;15267;47.838;12.128;2023-05-21T02:11:04;11.02;;;9.68;;
27925;SDS011;15267;47.838;12.128;2023-05-21T02:13:30;14.40;;;9.57;;
27925;SDS011;15267;47.838;12.128;2023-05-21T02:15:56;13.02;;;9.02;;
27925;SDS011;15267;47.838;12.128;2023-05-21T02:18:22;13.25;;;9.30;;
27925;SDS011;15267;47.838;12.128;2023-05-21T02:20:48;14.32;;;8.93;;
27925;SDS011;15267;47.838;12.128;2023-05-21T02:23:14;10.70;;;8.85;;
27925;SDS011;15267;47.838;12.128;2023-05-21T02:25:40;10.05;;;8.13;;
27925;SDS011;15267;47.838;12.128;2023-05-21T02:28:06;11.27;;;8.30;;
27925;SDS011;15267;47.838;12.128;2023-05-21T02:30:32;9.40;;;8.20;;
27925;SDS011;15267;47.838;12.128;2023-05-21T02:32:58;9.82;;;8.73;;
27925;SDS011;15267;47.838;12.128;2023-05-21T02:35:24;10.32;;;8.52;;
27925;SDS011;15267;47.838;12.128;2023-05-21T02:37:50;11.88;;;8.50;;
27925;SDS011;15267;47.838;12.128;2023-05-21T02:40:16;9.27;;;7.88;;
27925;SDS011;15267;47.838;12.128;2023-05-21T02:42:42;11.25;;;8.57;;
27925;SDS011;15267;47.838;12.128;2023-05-21T02:45:09;10.18;;;8.23;;
27925;SDS011;15267;47.838;12.128;2023-05-21T02:47:35;10.45;;;8.55;;
27925;SDS011;15267;47.838;12.128;2023-05-21T02:50:03;10.98;;;9.15;;
27925;SDS011;15267;47.838;12.128;2023-05-21T02:52:29;9.25;;;8.23;;
27925;SDS011;15267;47.838;12.128;2023-05-21T02:54:54;11.15;;;8.90;;
27925;SDS011;15267;47.838;12.128;2023-05-21T02:57:20;12.55;;;9.07;;
27925;SDS011;15267;47.838;12.128;2023-05-21T02:59:46;13.30;;;9.35;;
27925;SDS011;15267;47.838;12.128;2023-05-21T03:02:12;12.48;;;8.93;;
27925;SDS011;15267;47.838;12.128;2023-05-21T03:04:38;12.90;;;8.93;;
27925;SDS011;15267;47.838;12.128;2023-05-21T03:07:10;11.95;;;8.70;;
27925;SDS011;15267;47.838;12.128;2023-05-21T03:09:38;12.13;;;8.90;;
27925;SDS011;15267;47.838;12.128;2023-05-21T03:12:04;10.38;;;8.88;;
27925;SDS011;15267;47.838;12.128;2023-05-21T03:14:30;11.88;;;8.80;;
27925;SDS011;15267;47.838;12.128;2023-05-21T03:16:56;8.70;;;7.50;;
27925;SDS011;15267;47.838;12.128;2023-05-21T03:19:22;9.18;;;8.25;;
27925;SDS011;15267;47.838;12.128;2023-05-21T03:21:48;9.68;;;8.68;;
27925;SDS011;15267;47.838;12.128;2023-05-21T03:24:14;10.13;;;8.80;;
27925;SDS011;15267;47.838;12.128;2023-05-21T03:26:40;8.77;;;7.88;;
27925;SDS011;15267;47.838;12.128;2023-05-21T03:29:06;9.73;;;8.45;;
27925;SDS011;15267;47.838;12.128;2023-05-21T03:31:32;9.00;;;8.07;;
27925;SDS011;15267;47.838;12.128;2023-05-21T03:33:58;9.93;;;8.20;;
27925;SDS011;15267;47.838;12.128;2023-05-21T03:36:24;10.43;;;7.82;;
27925;SDS011;15267;47.838;12.128;2023-05-21T03:38:50;11.15;;;8.70;;
27925;SDS011;15267;47.838;12.128;2023-05-21T03:41:16;9.73;;;8.73;;
27925;SDS011;15267;47.838;12.128;2023-05-21T03:43:42;11.40;;;8.88;;
27925;SDS011;15267;47.838;12.128;2023-05-21T03:46:08;12.65;;;11.32;;
27925;SDS011;15267;47.838;12.128;2023-05-21T03:48:34;13.32;;;10.55;;
27925;SDS011;15267;47.838;12.128;2023-05-21T03:51:00;15.90;;;10.30;;
27925;SDS011;15267;47.838;12.128;2023-05-21T03:53:26;12.80;;;9.38;;
27925;SDS011;15267;47.838;12.128;2023-05-21T03:55:52;10.35;;;9.25;;
27925;SDS011;15267;47.838;12.128;2023-05-21T03:58:21;14.90;;;8.80;;
27925;SDS011;15267;47.838;12.128;2023-05-21T04:00:47;10.27;;;8.93;;
27925;SDS011;15267;47.838;12.128;2023-05-21T04:03:13;11.68;;;8.48;;
27925;SDS011;15267;47.838;12.128;2023-05-21T04:05:39;10.43;;;9.30;;
27925;SDS011;15267;47.838;12.128;2023-05-21T04:08:05;13.07;;;8.95;;
27925;SDS011;15267;47.838;12.128;2023-05-21T04:10:31;13.05;;;8.68;;
27925;SDS011;15267;47.838;12.128;2023-05-21T04:12:57;10.85;;;8.50;;
27925;SDS011;15267;47.838;12.128;2023-05-21T04:15:23;11.60;;;8.77;;
27925;SDS011;15267;47.838;12.128;2023-05-21T04:17:49;9.73;;;8.63;;
27925;SDS011;15267;47.838;12.128;2023-05-21T04:20:16;9.20;;;7.82;;
27925;SDS011;15267;47.838;12.128;2023-05-21T04:22:42;13.55;;;9.43;;
27925;SDS011;15267;47.838;12.128;2023-05-21T04:25:08;11.65;;;9.50;;
27925;SDS011;15267;47.838;12.128;2023-05-21T04:27:35;10.07;;;8.35;;
27925;SDS011;15267;47.838;12.128;2023-05-21T04:30:01;12.63;;;8.77;;
27925;SDS011;15267;47.838;12.128;2023-05-21T04:32:28;11.05;;;8.82;;
27925;SDS011;15267;47.838;12.128;2023-05-21T04:34:55;11.30;;;9.82;;
27925;SDS011;15267;47.838;12.128;2023-05-21T04:37:21;10.73;;;9.43;;
27925;SDS011;15267;47.838;12.128;2023-05-21T04:39:51;10.55;;;8.88;;
27925;SDS011;15267;47.838;12.128;2023-05-21T04:42:18;13.05;;;8.68;;
27925;SDS011;15267;47.838;12.128;2023-05-21T04:44:48;11.63;;;8.77;;
27925;SDS011;15267;47.838;12.128;2023-05-21T04:47:14;14.05;;;9.40;;
27925;SDS011;15267;47.838;12.128;2023-05-21T04:49:40;10.25;;;8.50;;
27925;SDS011;15267;47.838;12.128;2023-05-21T04:52:06;11.10;;;9.45;;
27925;SDS011;15267;47.838;12.128;2023-05-21T04:54:32;9.88;;;8.35;;
27925;SDS011;15267;47.838;12.128;2023-05-21T04:57:00;9.07;;;8.00;;
27925;SDS011;15267;47.838;12.128;2023-05-21T04:59:26;8.68;;;7.80;;
27925;SDS011;15267;47.838;12.128;2023-05-21T05:01:52;9.77;;;8.77;;
27925;SDS011;15267;47.838;12.128;2023-05-21T05:04:18;9.75;;;8.32;;
27925;SDS011;15267;47.838;12.128;2023-05-21T05:06:44;8.90;;;7.78;;
27925;SDS011;15267;47.838;12.128;2023-05-21T05:09:11;9.98;;;8.93;;
27925;SDS011;15267;47.838;12.128;2023-05-21T05:11:37;11.55;;;8.98;;
27925;SDS011;15267;47.838;12.128;2023-05-21T05:14:03;11.88;;;8.85;;
27925;SDS011;15267;47.838;12.128;2023-05-21T05:16:29;12.15;;;9.95;;
27925;SDS011;15267;47.838;12.128;2023-05-21T05:18:55;11.48;;;9.50;;
27925;SDS011;15267;47.838;12.128;2023-05-21T05:21:21;11.25;;;9.23;;
27925;SDS011;15267;47.838;12.128;2023-05-21T05:23:48;10.65;;;8.80;;
27925;SDS011;15267;47.838;12.128;2023-05-21T05:26:14;11.48;;;9.27;;
27925;SDS011;15267;47.838;12.128;2023-05-21T05:28:40;10.38;;;8.32;;
27925;SDS011;15267;47.838;12.128;2023-05-21T05:31:06;9.73;;;8.25;;
27925;SDS011;15267;47.838;12.128;2023-05-21T05:33:32;11.18;;;8.63;;
27925;SDS011;15267;47.838;12.128;2023-05-21T05:35:58;10.63;;;8.63;;
27925;SDS011;15267;47.838;12.128;2023-05-21T05:38:24;12.35;;;8.90;;
27925;SDS011;15267;47.838;12.128;2023-05-21T05:40:51;12.05;;;9.35;;
27925;SDS011;15267;47.838;12.128;2023-05-21T05:43:17;10.15;;;9.13;;
27925;SDS011;15267;47.838;12.128;2023-05-21T05:45:43;10.65;;;9.25;;
27925;SDS011;15267;47.838;12.128;2023-05-21T05:48:09;12.35;;;8.30;;
27925;SDS011;15267;47.838;12.128;2023-05-21T05:50:35;9.43;;;8.30;;
27925;SDS011;15267;47.838;12.128;2023-05-21T05:53:01;11.27;;;8.77;;
27925;SDS011;15267;47.838;12.128;2023-05-21T05:55:27;11.95;;;9.73;;
27925;SDS011;15267;47.838;12.128;2023-05-21T05:57:53;10.48;;;9.30;;
27925;SDS011;15267;47.838;12.128;2023-05-21T06:00:19;10.57;;;9.18;;
27925;SDS011;15267;47.838;12.128;2023-05-21T06:02:46;9.52;;;8.13;;
27925;SDS011;15267;47.838;12.128;2023-05-21T06:05:12;10.25;;;7.95;;
27925;SDS011;15267;47.838;12.128;2023-05-21T06:07:38;8.82;;;7.90;;
27925;SDS011;15267;47.838;12.128;2023-05-21T06:10:05;9.90;;;8.43;;
27925;SDS011;15267;47.838;12.128;2023-05-21T06:12:31;11.40;;;8.10;;
27925;SDS011;15267;47.838;12.128;2023-05-21T06:14:57;10.07;;;7.80;;
27925;SDS011;15267;47.838;12.128;2023-05-21T06:17:23;9.82;;;7.80;;
27925;SDS011;15267;47.838;12.128;2023-05-21T06:19:49;13.45;;;8.32;;
27925;SDS011;15267;47.838;12.128;2023-05-21T06:22:15;10.70;;;8.10;;
27925;SDS011;15267;47.838;12.128;2023-05-21T06:24:41;10.35;;;7.55;;
27925;SDS011;15267;47.838;12.128;2023-05-21T06:27:07;8.77;;;7.15;;
27925;SDS011;15267;47.838;12.128;2023-05-21T06:29:33;7.13;;;6.43;;
27925;SDS011;15267;47.838;12.128;2023-05-21T06:31:58;9.23;;;7.10;;
27925;SDS011;15267;47.838;12.128;2023-05-21T06:34:25;8.13;;;6.50;;
27925;SDS011;15267;47.838;12.128;2023-05-21T06:36:52;8.77;;;6.90;;
27925;SDS011;15267;47.838;12.128;2023-05-21T06:39:18;10.88;;;6.78;;
27925;SDS011;15267;47.838;12.128;2023-05-21T06:41:45;7.65;;;6.65;;
27925;SDS011;15267;47.838;12.128;2023-05-21T06:44:11;7.35;;;6.18;;
27925;SDS011;15267;47.838;12.128;2023-05-21T06:46:37;7.93;;;6.22;;
27925;SDS011;15267;47.838;12.128;2023-05-21T06:49:03;10.60;;;6.45;;
27925;SDS011;15267;47.838;12.128;2023-05-21T06:51:30;6.93;;;6.22;;
27925;SDS011;15267;47.838;12.128;2023-05-21T06:53:57;7.72;;;6.20;;
27925;SDS011;15267;47.838;12.128;2023-05-21T06:56:23;6.63;;;5.68;;
27925;SDS011;15267;47.838;12.128;2023-05-21T06:58:49;6.68;;;5.82;;
27925;SDS011;15267;47.838;12.128;2023-05-21T07:01:15;6.43;;;5.82;;
27925;SDS011;15267;47.838;12.128;2023-05-21T07:03:41;8.10;;;5.38;;
27925;SDS011;15267;47.838;12.128;2023-05-21T07:06:07;6.57;;;5.60;;
27925;SDS011;15267;47.838;12.128;2023-05-21T07:08:33;5.97;;;5.15;;
27925;SDS011;15267;47.838;12.128;2023-05-21T07:10:59;7.65;;;5.47;;
27925;SDS011;15267;47.838;12.128;2023-05-21T07:13:25;6.28;;;5.55;;
27925;SDS011;15267;47.838;12.128;2023-05-21T07:15:51;6.38;;;5.28;;
27925;SDS011;15267;47.838;12.128;2023-05-21T07:18:17;8.98;;;6.22;;
27925;SDS011;15267;47.838;12.128;2023-05-21T07:20:43;9.70;;;5.88;;
27925;SDS011;15267;47.838;12.128;2023-05-21T07:23:09;7.70;;;5.13;;
27925;SDS011;15267;47.838;12.128;2023-05-21T07:25:35;6.95;;;5.10;;
27925;SDS011;15267;47.838;12.128;2023-05-21T07:28:01;7.47;;;5.25;;
27925;SDS011;15267;47.838;12.128;2023-05-21T07:30:27;7.30;;;5.45;;
27925;SDS011;15267;47.838;12.128;2023-05-21T07:32:53;8.80;;;5.57;;
27925;SDS011;15267;47.838;12.128;2023-05-21T07:35:20;7.53;;;5.63;;
27925;SDS011;15267;47.838;12.128;2023-05-21T07:37:46;6.25;;;5.15;;
27925;SDS011;15267;47.838;12.128;2023-05-21T07:40:12;7.30;;;6.03;;
27925;SDS011;15267;47.838;12.128;2023-05-21T07:42:38;5.75;;;5.15;;
27925;SDS011;15267;47.838;12.128;2023-05-21T07:45:05;6.90;;;5.50;;
27925;SDS011;15267;47.838;12.128;2023-05-21T07:47:31;6.95;;;5.43;;
27925;SDS011;15267;47.838;12.128;2023-05-21T07:49:57;5.85;;;5.22;;
27925;SDS011;15267;47.838;12.128;2023-05-21T07:52:23;8.52;;;5.82;;
27925;SDS011;15267;47.838;12.128;2023-05-21T07:54:50;6.03;;;5.22;;
27925;SDS011;15267;47.838;12.128;2023-05-21T07:57:15;6.95;;;5.40;;
27925;SDS011;15267;47.838;12.128;2023-05-21T07:59:41;5.97;;;5.35;;
27925;SDS011;15267;47.838;12.128;2023-05-21T08:02:07;6.07;;;5.45;;
27925;SDS011;15267;47.838;12.128;2023-05-21T08:04:33;6.47;;;5.78;;
27925;SDS011;15267;47.838;12.128;2023-05-21T08:06:59;6.68;;;5.28;;
27925;SDS011;15267;47.838;12.128;2023-05-21T08:09:25;9.32;;;5.80;;
27925;SDS011;15267;47.838;12.128;2023-05-21T08:11:52;7.25;;;5.28;;
27925;SDS011;15267;47.838;12.128;2023-05-21T08:14:18;8.23;;;5.15;;
27925;SDS011;15267;47.838;12.128;2023-05-21T08:16:44;5.90;;;5.28;;
27925;SDS011;15267;47.838;12.128;2023-05-21T08:19:10;6.57;;;5.05;;
27925;SDS011;15267;47.838;12.128;2023-05-21T08:21:36;5.78;;;5.00;;
27925;SDS011;15267;47.838;12.128;2023-05-21T08:24:02;6.97;;;5.10;;
27925;SDS011;15267;47.838;12.128;2023-05-21T08:26:28;7.57;;;5.07;;
27925;SDS011;15267;47.838;12.128;2023-05-21T08:28:54;5.97;;;4.80;;
27925;SDS011;15267;47.838;12.128;2023-05-21T08:31:21;7.03;;;5.65;;
27925;SDS011;15267;47.838;12.128;2023-05-21T08:33:50;8.25;;;5.22;;
27925;SDS011;15267;47.838;12.128;2023-05-21T08:36:17;7.88;;;5.63;;
27925;SDS011;15267;47.838;12.128;2023-05-21T08:38:43;5.82;;;5.22;;
27925;SDS011;15267;47.838;12.128;2023-05-21T08:41:10;7.03;;;5.43;;
27925;SDS011;15267;47.838;12.128;2023-05-21T08:43:36;5.90;;;5.00;;
27925;SDS011;15267;47.838;12.128;2023-05-21T08:46:05;6.90;;;5.32;;
27925;SDS011;15267;47.838;12.128;2023-05-21T08:48:33;5.82;;;5.22;;
27925;SDS011;15267;47.838;12.128;2023-05-21T08:50:59;7.72;;;5.65;;
27925;SDS011;15267;47.838;12.128;2023-05-21T08:53:25;8.07;;;5.57;;
27925;SDS011;15267;47.838;12.128;2023-05-21T08:55:51;6.82;;;5.15;;
27925;SDS011;15267;47.838;12.128;2023-05-21T08:58:19;10.48;;;5.30;;
27925;SDS011;15267;47.838;12.128;2023-05-21T09:00:45;6.18;;;5.20;;
27925;SDS011;15267;47.838;12.128;2023-05-21T09:03:11;6.05;;;5.38;;
27925;SDS011;15267;47.838;12.128;2023-05-21T09:05:41;7.20;;;5.50;;
27925;SDS011;15267;47.838;12.128;2023-05-21T09:10:52;8.00;;;5.07;;
27925;SDS011;15267;47.838;12.128;2023-05-21T09:13:18;6.25;;;5.40;;
27925;SDS011;15267;47.838;12.128;2023-05-21T09:15:44;6.00;;;5.13;;
27925;SDS011;15267;47.838;12.128;2023-05-21T09:18:11;7.60;;;5.57;;
27925;SDS011;15267;47.838;12.128;2023-05-21T09:20:37;6.13;;;5.53;;
27925;SDS011;15267;47.838;12.128;2023-05-21T09:23:03;5.95;;;5.38;;
27925;SDS011;15267;47.838;12.128;2023-05-21T09:25:30;9.85;;;5.85;;
27925;SDS011;15267;47.838;12.128;2023-05-21T09:27:57;6.20;;;5.45;;
27925;SDS011;15267;47.838;12.128;2023-05-21T09:30:23;6.85;;;5.60;;
27925;SDS011;15267;47.838;12.128;2023-05-21T09:32:51;9.23;;;5.50;;
27925;SDS011;15267;47.838;12.128;2023-05-21T09:35:18;6.28;;;5.60;;
27925;SDS011;15267;47.838;12.128;2023-05-21T09:37:46;7.30;;;5.18;;
27925;SDS011;15267;47.838;12.128;2023-05-21T09:40:12;7.82;;;5.18;;
27925;SDS011;15267;47.838;12.128;2023-05-21T09:42:46;5.78;;;5.20;;
27925;SDS011;15267;47.838;12.128;2023-05-21T09:45:22;6.82;;;5.10;;
27925;SDS011;15267;47.838;12.128;2023-05-21T09:47:49;6.40;;;5.28;;
27925;SDS011;15267;47.838;12.128;2023-05-21T09:50:16;6.18;;;5.57;;
27925;SDS011;15267;47.838;12.128;2023-05-21T09:52:43;6.45;;;5.20;;
27925;SDS011;15267;47.838;12.128;2023-05-21T09:55:09;5.85;;;5.22;;
27925;SDS011;15267;47.838;12.128;2023-05-21T09:57:42;7.75;;;5.25;;
27925;SDS011;15267;47.838;12.128;2023-05-21T10:00:09;6.28;;;4.88;;
27925;SDS011;15267;47.838;12.128;2023-05-21T10:02:43;6.05;;;4.90;;
27925;SDS011;15267;47.838;12.128;2023-05-21T10:05:10;6.28;;;5.28;;
27925;SDS011;15267;47.838;12.128;2023-05-21T10:07:36;6.72;;;4.70;;
27925;SDS011;15267;47.838;12.128;2023-05-21T10:10:03;5.95;;;5.28;;
27925;SDS011;15267;47.838;12.128;2023-05-21T10:12:31;6.07;;;4.90;;
27925;SDS011;15267;47.838;12.128;2023-05-21T10:15:04;6.28;;;4.32;;
27925;SDS011;15267;47.838;12.128;2023-05-21T10:17:32;6.82;;;4.82;;
27925;SDS011;15267;47.838;12.128;2023-05-21T10:19:58;5.30;;;4.80;;
27925;SDS011;15267;47.838;12.128;2023-05-21T10:22:25;6.65;;;4.95;;
27925;SDS011;15267;47.838;12.128;2023-05-21T10:24:52;5.82;;;5.22;;
27925;SDS011;15267;47.838;12.128;2023-05-21T10:27:18;6.57;;;5.30;;
27925;SDS011;15267;47.838;12.128;2023-05-21T10:29:44;7.05;;;4.78;;
27925;SDS011;15267;47.838;12.128;2023-05-21T10:32:10;5.70;;;5.10;;
27925;SDS011;15267;47.838;12.128;2023-05-21T10:34:36;6.45;;;4.70;;
27925;SDS011;15267;47.838;12.128;2023-05-21T10:37:03;6.07;;;4.63;;
27925;SDS011;15267;47.838;12.128;2023-05-21T10:39:29;8.15;;;4.90;;
27925;SDS011;15267;47.838;12.128;2023-05-21T10:55:51;6.47;;;4.85;;
27925;SDS011;15267;47.838;12.128;2023-05-21T10:57:58;8.18;;;4.85;;
27925;SDS011;15267;47.838;12.128;2023-05-21T11:00:25;6.88;;;4.30;;
27925;SDS011;15267;47.838;12.128;2023-05-21T11:02:51;6.75;;;4.47;;
27925;SDS011;15267;47.838;12.128;2023-05-21T11:05:36;4.90;;;4.40;;
27925;SDS011;15267;47.838;12.128;2023-05-21T11:08:03;5.05;;;4.55;;
27925;SDS011;15267;47.838;12.128;2023-05-21T11:10:36;5.78;;;4.85;;
27925;SDS011;15267;47.838;12.128;2023-05-21T11:18:20;5.60;;;4.80;;
27925;SDS011;15267;47.838;12.128;2023-05-21T11:20:49;6.25;;;4.40;;
27925;SDS011;15267;47.838;12.128;2023-05-21T11:23:15;6.50;;;4.63;;
27925;SDS011;15267;47.838;12.128;2023-05-21T11:25:41;4.82;;;4.43;;
27925;SDS011;15267;47.838;12.128;2023-05-21T11:28:07;4.68;;;4.18;;
27925;SDS011;15267;47.838;12.128;2023-05-21T11:30:33;6.47;;;4.70;;
27925;SDS011;15267;47.838;12.128;2023-05-21T11:35:54;6.72;;;4.63;;
27925;SDS011;15267;47.838;12.128;2023-05-21T11:38:20;5.13;;;4.50;;
27925;SDS011;15267;47.838;12.128;2023-05-21T11:40:50;7.57;;;4.43;;
27925;SDS011;15267;47.838;12.128;2023-05-21T11:43:18;5.43;;;4.35;;
27925;SDS011;15267;47.838;12.128;2023-05-21T11:45:45;4.45;;;4.03;;
27925;SDS011;15267;47.838;12.128;2023-05-21T11:48:14;5.70;;;4.70;;
27925;SDS011;15267;47.838;12.128;2023-05-21T11:50:41;4.82;;;4.10;;
27925;SDS011;15267;47.838;12.128;2023-05-21T11:53:07;6.28;;;4.47;;
27925;SDS011;15267;47.838;12.128;2023-05-21T11:55:39;6.15;;;4.15;;
27925;SDS011;15267;47.838;12.128;2023-05-21T11:58:11;18.15;;;15.48;;
27925;SDS011;15267;47.838;12.128;2023-05-21T12:00:38;10.15;;;8.63;;
27925;SDS011;15267;47.838;12.128;2023-05-21T12:03:04;5.38;;;4.60;;
27925;SDS011;15267;47.838;12.128;2023-05-21T12:05:46;5.43;;;4.32;;
27925;SDS011;15267;47.838;12.128;2023-05-21T12:08:12;4.82;;;4.32;;
27925;SDS011;15267;47.838;12.128;2023-05-21T12:10:38;5.50;;;4.05;;
27925;SDS011;15267;47.838;12.128;2023-05-21T12:13:04;4.82;;;4.20;;
27925;SDS011;15267;47.838;12.128;2023-05-21T12:15:30;7.05;;;4.38;;
27925;SDS011;15267;47.838;12.128;2023-05-21T12:17:56;7.07;;;4.38;;
27925;SDS011;15267;47.838;12.128;2023-05-21T12:20:24;5.38;;;4.05;;
27925;SDS011;15267;47.838;12.128;2023-05-21T12:22:51;7.55;;;5.65;;
27925;SDS011;15267;47.838;12.128;2023-05-21T12:25:17;4.95;;;4.43;;
27925;SDS011;15267;47.838;12.128;2023-05-21T12:27:44;4.88;;;4.38;;
27925;SDS011;15267;47.838;12.128;2023-05-21T12:30:10;4.93;;;3.70;;
27925;SDS011;15267;47.838;12.128;2023-05-21T12:32:39;4.03;;;3.63;;
27925;SDS011;15267;47.838;12.128;2023-05-21T12:35:08;4.50;;;4.03;;
27925;SDS011;15267;47.838;12.128;2023-05-21T12:37:34;7.70;;;3.85;;
27925;SDS011;15267;47.838;12.128;2023-05-21T12:40:04;4.65;;;3.40;;
27925;SDS011;15267;47.838;12.128;2023-05-21T12:42:33;5.15;;;4.00;;
27925;SDS011;15267;47.838;12.128;2023-05-21T12:45:05;5.38;;;4.07;;
27925;SDS011;15267;47.838;12.128;2023-05-21T12:47:31;5.05;;;3.80;;
27925;SDS011;15267;47.838;12.128;2023-05-21T12:49:57;5.00;;;4.10;;
27925;SDS011;15267;47.838;12.128;2023-05-21T12:52:24;6.93;;;4.45;;
27925;SDS011;15267;47.838;12.128;2023-05-21T12:54:51;4.97;;;4.07;;
27925;SDS011;15267;47.838;12.128;2023-05-21T12:57:18;4.75;;;3.90;;
27925;SDS011;15267;47.838;12.128;2023-05-21T12:59:45;5.57;;;4.03;;
27925;SDS011;15267;47.838;12.128;2023-05-21T13:02:18;5.10;;;3.70;;
27925;SDS011;15267;47.838;12.128;2023-05-21T13:07:11;6.30;;;3.85;;
27925;SDS011;15267;47.838;12.128;2023-05-21T13:09:37;6.10;;;3.75;;
27925;SDS011;15267;47.838;12.128;2023-05-21T13:12:03;7.40;;;3.97;;
27925;SDS011;15267;47.838;12.128;2023-05-21T13:14:29;4.28;;;3.58;;
27925;SDS011;15267;47.838;12.128;2023-05-21T13:16:55;4.30;;;3.90;;
27925;SDS011;15267;47.838;12.128;2023-05-21T13:19:21;5.82;;;3.72;;
27925;SDS011;15267;47.838;12.128;2023-05-21T13:21:47;6.28;;;3.83;;
27925;SDS011;15267;47.838;12.128;2023-05-21T13:24:13;4.18;;;3.60;;
27925;SDS011;15267;47.838;12.128;2023-05-21T13:26:39;5.05;;;3.70;;
27925;SDS011;15267;47.838;12.128;2023-05-21T13:29:05;6.18;;;3.72;;
27925;SDS011;15267;47.838;12.128;2023-05-21T13:31:31;5.60;;;3.58;;
27925;SDS011;15267;47.838;12.128;2023-05-21T13:33:57;9.50;;;3.60;;
27925;SDS011;15267;47.838;12.128;2023-05-21T13:36:23;6.82;;;3.67;;
27925;SDS011;15267;47.838;12.128;2023-05-21T13:38:49;5.82;;;3.90;;
27925;SDS011;15267;47.838;12.128;2023-05-21T13:41:15;6.82;;;4.03;;
27925;SDS011;15267;47.838;12.128;2023-05-21T13:43:41;5.10;;;3.80;;
27925;SDS011;15267;47.838;12.128;2023-05-21T13:46:07;3.90;;;3.50;;
27925;SDS011;15267;47.838;12.128;2023-05-21T13:48:33;8.40;;;3.33;;
27925;SDS011;15267;47.838;12.128;2023-05-21T13:50:59;4.25;;;3.42;;
27925;SDS011;15267;47.838;12.128;2023-05-21T13:53:25;3.63;;;3.25;;
27925;SDS011;15267;47.838;12.128;2023-05-21T13:55:51;5.03;;;3.22;;
27925;SDS011;15267;47.838;12.128;2023-05-21T13:58:17;5.57;;;3.70;;
27925;SDS011;15267;47.838;12.128;2023-05-21T14:00:43;4.88;;;3.53;;
27925;SDS011;15267;47.838;12.128;2023-05-21T14:03:09;4.35;;;3.22;;
27925;SDS011;15267;47.838;12.128;2023-05-21T14:05:35;3.95;;;3.50;;
27925;SDS011;15267;47.838;12.128;2023-05-21T14:08:01;4.65;;;3.50;;
27925;SDS011;15267;47.838;12.128;2023-05-21T14:10:27;4.00;;;3.60;;
27925;SDS011;15267;47.838;12.128;2023-05-21T14:12:53;4.38;;;3.25;;
27925;SDS011;15267;47.838;12.128;2023-05-21T14:15:19;5.40;;;4.07;;
27925;SDS011;15267;47.838;12.128;2023-05-21T14:17:46;5.60;;;3.45;;
27925;SDS011;15267;47.838;12.128;2023-05-21T14:20:12;3.95;;;3.55;;
27925;SDS011;15267;47.838;12.128;2023-05-21T14:22:38;4.97;;;3.40;;
27925;SDS011;15267;47.838;12.128;2023-05-21T14:25:04;4.68;;;3.40;;
27925;SDS011;15267;47.838;12.128;2023-05-21T14:27:30;3.72;;;3.30;;
27925;SDS011;15267;47.838;12.128;2023-05-21T14:29:56;7.78;;;3.47;;
27925;SDS011;15267;47.838;12.128;2023-05-21T14:32:22;3.83;;;3.42;;
27925;SDS011;15267;47.838;12.128;2023-05-21T14:34:48;3.67;;;3.28;;
27925;SDS011;15267;47.838;12.128;2023-05-21T14:37:14;3.95;;;3.50;;
27925;SDS011;15267;47.838;12.128;2023-05-21T14:39:40;3.80;;;3.50;;
27925;SDS011;15267;47.838;12.128;2023-05-21T14:42:05;5.20;;;3.50;;
27925;SDS011;15267;47.838;12.128;2023-05-21T14:44:31;5.55;;;3.47;;
27925;SDS011;15267;47.838;12.128;2023-05-21T14:46:57;5.57;;;3.67;;
27925;SDS011;15267;47.838;12.128;2023-05-21T14:49:23;5.18;;;3.22;;
27925;SDS011;15267;47.838;12.128;2023-05-21T14:51:49;4.00;;;3.53;;
27925;SDS011;15267;47.838;12.128;2023-05-21T14:54:15;5.60;;;3.53;;